createdAt,value
2023-03-16T00:00:27.966Z,64.53
2023-03-16T00:02:55.895Z,64.99
2023-03-16T00:05:26.049Z,65.67
2023-03-16T00:07:54.609Z,64.62
2023-03-16T00:10:27.912Z,66.10
2023-03-16T00:12:58.501Z,65.88
2023-03-16T00:15:28.042Z,65.87
2023-03-16T00:17:57.613Z,65.76
2023-03-16T00:20:25.642Z,66.23
2023-03-16T00:22:56.981Z,66.19
2023-03-16T00:25:24.964Z,67.38
2023-03-16T00:27:52.740Z,66.80
2023-03-16T00:30:23.107Z,66.76
2023-03-16T00:32:54.138Z,67.70
2023-03-16T00:35:21.908Z,67.36
2023-03-16T00:37:49.902Z,68.46
2023-03-16T00:40:19.701Z,67.91
2023-03-16T00:42:49.310Z,68.83
2023-03-16T00:45:18.969Z,68.46
2023-03-16T00:47:46.684Z,68.94
2023-03-16T00:50:14.435Z,68.68
2023-03-16T00:52:42.898Z,69.03
2023-03-16T00:55:13.216Z,68.61
2023-03-16T00:57:41.659Z,68.58
2023-03-16T01:00:13.219Z,69.57
2023-03-16T01:02:45.524Z,69.22
2023-03-16T01:05:15.270Z,69.00
2023-03-16T01:07:45.297Z,69.82
2023-03-16T01:10:17.600Z,69.93
2023-03-16T01:12:45.471Z,70.72
2023-03-16T01:15:16.755Z,70.15
2023-03-16T01:17:44.456Z,70.70
2023-03-16T01:20:12.953Z,70.45
2023-03-16T01:22:40.738Z,71.23
2023-03-16T01:25:11.372Z,70.09
2023-03-16T01:27:39.158Z,70.71
2023-03-16T01:30:08.065Z,70.12
2023-03-16T01:32:35.793Z,71.00
2023-03-16T01:35:08.338Z,72.14
2023-03-16T01:37:36.885Z,71.64
2023-03-16T01:40:08.923Z,70.79
2023-03-16T01:42:48.963Z,70.56
2023-03-16T01:46:05.215Z,71.17
2023-03-16T01:49:15.155Z,71.02
2023-03-16T01:52:03.748Z,72.19
2023-03-16T01:54:38.461Z,71.73
2023-03-16T01:57:22.354Z,72.50
2023-03-16T02:00:15.125Z,72.38
2023-03-16T02:02:48.655Z,72.29
2023-03-16T02:05:42.499Z,72.65
2023-03-16T02:08:12.634Z,74.06
2023-03-16T02:10:41.701Z,75.62
2023-03-16T02:13:09.659Z,73.58
2023-03-16T02:15:39.280Z,74.53
2023-03-16T02:18:08.673Z,73.44
2023-03-16T02:21:06.687Z,73.04
2023-03-16T02:23:34.455Z,73.57
2023-03-16T02:26:23.153Z,73.07
2023-03-16T02:29:29.917Z,73.15
2023-03-16T02:32:00.200Z,72.56
2023-03-16T02:34:28.652Z,72.92
2023-03-16T02:36:59.475Z,73.38
2023-03-16T02:39:28.173Z,72.61
2023-03-16T02:41:55.987Z,73.44
2023-03-16T02:44:35.724Z,73.62
2023-03-16T02:47:29.808Z,74.42
2023-03-16T02:49:59.309Z,73.47
2023-03-16T02:52:27.938Z,74.22
2023-03-16T02:54:56.476Z,73.48
2023-03-16T02:57:25.064Z,73.43
2023-03-16T02:59:52.899Z,73.78
2023-03-16T03:02:22.499Z,72.92
2023-03-16T03:04:54.669Z,72.12
2023-03-16T03:07:32.376Z,72.19
2023-03-16T03:10:04.611Z,73.47
2023-03-16T03:12:36.038Z,73.22
2023-03-16T03:15:08.824Z,73.26
2023-03-16T03:17:37.582Z,72.09
2023-03-16T03:20:13.808Z,72.31
2023-03-16T03:22:42.178Z,72.23
2023-03-16T03:25:10.076Z,72.66
2023-03-16T03:27:38.202Z,73.64
2023-03-16T03:30:06.998Z,72.09
2023-03-16T03:32:34.813Z,71.56
2023-03-16T03:35:05.695Z,71.88
2023-03-16T03:37:33.814Z,72.32
2023-03-16T03:40:04.806Z,72.08
2023-03-16T03:42:32.540Z,72.22
2023-03-16T03:45:00.946Z,72.44
2023-03-16T03:47:28.689Z,72.74
2023-03-16T03:49:56.434Z,73.51
2023-03-16T03:52:25.009Z,73.47
2023-03-16T03:54:52.694Z,73.46
2023-03-16T03:57:21.935Z,73.65
2023-03-16T03:59:50.041Z,73.23
2023-03-16T04:02:17.800Z,73.13
2023-03-16T04:04:46.382Z,72.85
2023-03-16T04:07:15.060Z,73.49
2023-03-16T04:09:43.595Z,74.84
2023-03-16T04:12:12.430Z,73.62
2023-03-16T04:14:40.191Z,73.84
2023-03-16T04:17:08.074Z,74.14
2023-03-16T04:19:36.020Z,74.14
2023-03-16T04:22:06.692Z,74.46
2023-03-16T04:24:36.417Z,74.73
2023-03-16T04:27:04.296Z,74.80
2023-03-16T04:29:32.236Z,75.33
2023-03-16T04:32:00.029Z,75.90
2023-03-16T04:34:28.745Z,76.29
2023-03-16T04:36:57.438Z,78.56
2023-03-16T04:39:25.951Z,77.78
2023-03-16T04:41:54.454Z,77.29
2023-03-16T04:44:22.146Z,76.94
2023-03-16T04:46:50.665Z,77.01
2023-03-16T04:49:18.387Z,76.78
2023-03-16T04:51:46.065Z,76.84
2023-03-16T04:54:13.884Z,76.28
2023-03-16T04:56:41.854Z,75.91
2023-03-16T04:59:11.011Z,75.90
2023-03-16T05:01:39.608Z,76.12
2023-03-16T05:04:08.255Z,75.48
2023-03-16T05:06:36.821Z,75.73
2023-03-16T05:09:07.652Z,75.55
2023-03-16T05:11:37.580Z,75.16
2023-03-16T05:14:06.246Z,75.93
2023-03-16T05:16:34.678Z,75.90
2023-03-16T05:19:03.363Z,75.32
2023-03-16T05:21:32.293Z,75.44
2023-03-16T05:24:00.940Z,75.31
2023-03-16T05:26:29.599Z,75.62
2023-03-16T05:28:58.430Z,73.63
2023-03-16T05:31:27.502Z,73.14
2023-03-16T05:33:55.537Z,70.58
2023-03-16T05:36:24.836Z,69.39
2023-03-16T05:38:53.435Z,70.52
2023-03-16T05:41:21.687Z,72.36
2023-03-16T05:43:50.450Z,72.74
2023-03-16T05:46:20.864Z,72.40
2023-03-16T05:48:49.544Z,71.39
2023-03-16T05:51:17.251Z,70.24
2023-03-16T05:53:46.998Z,70.62
2023-03-16T05:56:15.217Z,70.21
2023-03-16T05:58:43.017Z,66.66
2023-03-16T06:01:13.533Z,66.60
2023-03-16T06:03:42.137Z,60.12
2023-03-16T06:06:11.230Z,56.77
2023-03-16T06:08:39.056Z,51.02
2023-03-16T06:11:08.791Z,48.64
2023-03-16T06:13:39.938Z,45.61
2023-03-16T06:16:09.070Z,45.06
2023-03-16T06:18:38.214Z,40.53
2023-03-16T06:21:07.217Z,39.27
2023-03-16T06:23:36.065Z,37.74
2023-03-16T06:26:05.383Z,37.13
2023-03-16T06:28:33.128Z,38.09
2023-03-16T06:31:01.094Z,34.74
2023-03-16T06:33:29.749Z,36.35
2023-03-16T06:35:59.325Z,37.20
2023-03-16T06:38:29.364Z,35.06
2023-03-16T06:40:57.990Z,35.18
2023-03-16T06:43:26.672Z,34.00
2023-03-16T06:45:55.337Z,35.38
2023-03-16T06:48:24.890Z,39.12
2023-03-16T06:50:52.651Z,39.05
2023-03-16T06:53:22.241Z,37.08
2023-03-16T06:55:51.457Z,36.44
2023-03-16T06:58:20.099Z,34.20
2023-03-16T07:00:48.098Z,34.51
2023-03-16T07:03:17.617Z,34.89
2023-03-16T07:05:46.856Z,34.21
2023-03-16T07:08:15.386Z,33.38
2023-03-16T07:10:43.906Z,31.21
2023-03-16T07:13:15.185Z,34.92
2023-03-16T07:15:44.795Z,33.59
2023-03-16T07:18:12.479Z,32.55
2023-03-16T07:20:40.276Z,36.23
2023-03-16T07:23:07.987Z,41.75
2023-03-16T07:25:36.702Z,47.13
2023-03-16T07:28:04.797Z,48.12
2023-03-16T07:30:34.380Z,48.23
2023-03-16T07:33:02.157Z,49.18
2023-03-16T07:35:30.610Z,47.98
2023-03-16T07:37:58.741Z,49.59
2023-03-16T07:40:27.785Z,49.89
2023-03-16T07:42:55.873Z,50.32
2023-03-16T07:45:24.407Z,49.69
2023-03-16T07:47:52.935Z,49.13
2023-03-16T07:50:23.367Z,50.03
2023-03-16T07:52:52.182Z,51.42
2023-03-16T07:55:20.049Z,50.52
2023-03-16T07:57:49.612Z,50.15
2023-03-16T08:00:23.995Z,51.48
2023-03-16T08:02:55.053Z,49.92
2023-03-16T08:05:25.557Z,50.43
2023-03-16T08:07:56.229Z,50.38
2023-03-16T08:10:26.069Z,50.13
2023-03-16T08:12:54.938Z,50.09
2023-03-16T08:15:22.777Z,50.13
2023-03-16T08:17:52.608Z,49.04
2023-03-16T08:20:21.287Z,49.63
2023-03-16T08:22:49.915Z,48.32
2023-03-16T08:25:20.078Z,49.03
2023-03-16T08:27:48.842Z,49.13
2023-03-16T08:30:18.034Z,47.76
2023-03-16T08:32:46.673Z,48.19
2023-03-16T08:35:19.290Z,48.15
2023-03-16T08:37:47.596Z,47.14
2023-03-16T08:40:17.145Z,47.35
2023-03-16T08:42:46.066Z,49.79
2023-03-16T08:45:15.012Z,48.03
2023-03-16T08:47:44.319Z,46.82
2023-03-16T08:50:13.771Z,46.08
2023-03-16T08:52:42.964Z,46.42
2023-03-16T08:55:11.606Z,46.63
2023-03-16T08:57:40.084Z,45.35
2023-03-16T09:00:13.849Z,45.62
2023-03-16T09:02:44.263Z,45.66
2023-03-16T09:05:16.027Z,45.28
2023-03-16T09:07:43.924Z,44.57
2023-03-16T09:10:16.364Z,43.94
2023-03-16T09:12:44.950Z,43.07
2023-03-16T09:15:15.009Z,43.76
2023-03-16T09:17:45.267Z,44.31
2023-03-16T09:20:26.826Z,44.28
2023-03-16T09:22:59.026Z,42.44
2023-03-16T09:25:29.692Z,43.32
2023-03-16T09:28:01.162Z,43.33
2023-03-16T09:30:29.166Z,42.22
2023-03-16T09:32:57.274Z,43.39
2023-03-16T09:35:25.345Z,44.23
2023-03-16T09:38:05.527Z,43.29
2023-03-16T09:40:36.163Z,44.33
2023-03-16T09:43:38.805Z,44.88
2023-03-16T09:46:38.833Z,45.20
2023-03-16T09:49:12.378Z,44.68
2023-03-16T09:52:34.168Z,44.26
2023-03-16T09:55:28.598Z,45.07
2023-03-16T09:57:59.924Z,44.29
2023-03-16T10:00:41.886Z,45.97
2023-03-16T10:03:28.709Z,43.17
2023-03-16T10:06:08.166Z,43.02
2023-03-16T10:09:34.168Z,43.26
2023-03-16T10:12:09.007Z,43.35
2023-03-16T10:15:04.920Z,42.82
2023-03-16T10:18:07.313Z,41.67
2023-03-16T10:20:36.756Z,39.98
2023-03-16T10:23:24.321Z,41.71
2023-03-16T10:25:56.880Z,40.03
2023-03-16T10:28:28.852Z,40.81
2023-03-16T10:31:02.367Z,36.58
2023-03-16T10:33:36.805Z,36.53
2023-03-16T10:36:17.175Z,38.15
2023-03-16T10:38:55.414Z,36.78
2023-03-16T10:41:37.561Z,36.26
2023-03-16T10:44:28.703Z,37.16
2023-03-16T10:47:07.507Z,37.47
2023-03-16T10:49:48.973Z,36.63
2023-03-16T10:52:42.827Z,35.93
2023-03-16T10:55:31.236Z,34.90
2023-03-16T10:57:59.826Z,36.38
2023-03-16T11:00:43.524Z,36.52
2023-03-16T11:03:39.501Z,36.37
2023-03-16T11:06:22.641Z,36.02
2023-03-16T11:08:52.893Z,35.12
2023-03-16T11:11:34.367Z,36.69
2023-03-16T11:14:12.939Z,37.06
2023-03-16T11:17:28.696Z,36.22
2023-03-16T11:20:12.362Z,36.79
2023-03-16T11:22:48.600Z,34.34
2023-03-16T11:25:47.909Z,34.87
2023-03-16T11:28:38.829Z,33.73
2023-03-16T11:31:50.750Z,34.73
2023-03-16T11:34:30.734Z,34.36
2023-03-16T11:37:43.270Z,33.25
2023-03-16T11:41:04.801Z,34.10
2023-03-16T11:43:53.780Z,32.85
2023-03-16T11:46:32.246Z,32.95
2023-03-16T11:50:23.013Z,33.77
2023-03-16T11:53:20.139Z,34.10
2023-03-16T11:56:45.038Z,32.57
2023-03-16T12:00:15.070Z,33.00
2023-03-16T12:02:58.597Z,32.20
2023-03-16T12:05:48.747Z,32.31
2023-03-16T12:08:57.680Z,30.73
2023-03-16T12:11:36.893Z,29.70
2023-03-16T12:14:30.459Z,31.06
2023-03-16T12:17:29.609Z,30.97
2023-03-16T12:20:34.203Z,31.82
2023-03-16T12:23:22.707Z,32.78
2023-03-16T12:25:53.157Z,32.59
2023-03-16T12:28:27.860Z,31.62
2023-03-16T12:31:31.047Z,31.69
2023-03-16T12:34:27.675Z,31.69
2023-03-16T12:37:37.410Z,30.62
2023-03-16T12:40:23.060Z,29.84
2023-03-16T12:43:24.489Z,30.87
2023-03-16T12:46:33.934Z,29.21
2023-03-16T12:49:06.312Z,30.05
2023-03-16T12:51:42.548Z,29.85
2023-03-16T12:54:27.721Z,30.46
2023-03-16T12:57:09.799Z,31.24
2023-03-16T12:59:45.727Z,30.56
2023-03-16T13:02:33.319Z,30.17
2023-03-16T13:05:13.257Z,29.09
2023-03-16T13:08:05.782Z,29.68
2023-03-16T13:10:33.615Z,27.05
2023-03-16T13:13:16.476Z,28.41
2023-03-16T13:15:49.801Z,28.27
2023-03-16T13:18:19.009Z,29.46
2023-03-16T13:21:00.028Z,28.07
2023-03-16T13:23:59.853Z,28.19
2023-03-16T13:26:52.270Z,26.90
2023-03-16T13:29:32.754Z,27.69
2023-03-16T13:32:08.860Z,29.16
2023-03-16T13:34:50.023Z,27.74
2023-03-16T13:37:21.324Z,27.55
2023-03-16T13:40:02.179Z,29.11
2023-03-16T13:42:33.823Z,28.66
2023-03-16T13:45:15.468Z,28.63
2023-03-16T13:47:46.137Z,28.85
2023-03-16T13:50:17.860Z,27.89
2023-03-16T13:52:58.949Z,28.09
2023-03-16T13:55:34.815Z,27.27
2023-03-16T13:58:04.861Z,27.62
2023-03-16T14:00:37.195Z,27.99
2023-03-16T14:03:20.145Z,27.82
2023-03-16T14:05:49.760Z,26.89
2023-03-16T14:08:26.369Z,26.01
2023-03-16T14:10:59.232Z,26.26
2023-03-16T14:13:32.483Z,27.91
2023-03-16T14:16:10.252Z,28.25
2023-03-16T14:18:46.132Z,30.48
2023-03-16T14:21:25.504Z,29.37
2023-03-16T14:24:07.866Z,28.72
2023-03-16T14:26:47.474Z,29.44
2023-03-16T14:29:31.678Z,27.60
2023-03-16T14:32:00.741Z,28.72
2023-03-16T14:34:39.758Z,27.31
2023-03-16T14:37:19.094Z,28.01
2023-03-16T14:40:06.167Z,29.23
2023-03-16T14:42:35.005Z,28.04
2023-03-16T14:45:10.837Z,28.56
2023-03-16T14:47:48.165Z,28.47
2023-03-16T14:50:26.031Z,27.78
2023-03-16T14:52:57.402Z,28.59
2023-03-16T14:55:27.145Z,28.28
2023-03-16T14:57:56.758Z,27.82
2023-03-16T15:00:25.577Z,27.42
2023-03-16T15:03:08.256Z,27.60
2023-03-16T15:05:43.343Z,27.88
2023-03-16T15:08:32.955Z,27.92
2023-03-16T15:11:07.243Z,28.72
2023-03-16T15:13:41.659Z,29.60
2023-03-16T15:16:14.480Z,27.13
2023-03-16T15:18:43.496Z,27.85
2023-03-16T15:21:25.892Z,28.27
2023-03-16T15:23:54.735Z,28.11
2023-03-16T15:26:27.566Z,27.83
2023-03-16T15:28:57.611Z,27.46
2023-03-16T15:31:26.861Z,27.00
2023-03-16T15:33:54.681Z,27.49
2023-03-16T15:36:25.044Z,27.06
2023-03-16T15:38:55.694Z,28.55
2023-03-16T15:41:30.079Z,28.26
2023-03-16T15:44:01.628Z,29.24
2023-03-16T15:46:29.384Z,29.30
2023-03-16T15:48:57.072Z,28.62
2023-03-16T15:51:31.412Z,29.17
2023-03-16T15:54:08.508Z,28.14
2023-03-16T15:56:53.192Z,28.45
2023-03-16T15:59:23.962Z,29.21
2023-03-16T16:01:53.026Z,28.28
2023-03-16T16:04:25.122Z,29.06
2023-03-16T16:06:55.535Z,29.21
2023-03-16T16:09:24.387Z,30.35
2023-03-16T16:11:53.919Z,30.67
2023-03-16T16:14:26.628Z,31.09
2023-03-16T16:16:56.576Z,30.49
2023-03-16T16:19:25.630Z,31.42
2023-03-16T16:21:56.158Z,31.84
2023-03-16T16:24:25.332Z,31.50
2023-03-16T16:26:55.544Z,30.90
2023-03-16T16:29:32.072Z,31.32
2023-03-16T16:32:02.080Z,31.29
2023-03-16T16:34:31.711Z,34.63
2023-03-16T16:37:01.285Z,35.50
2023-03-16T16:39:29.915Z,34.99
2023-03-16T16:41:58.119Z,36.21
2023-03-16T16:44:34.397Z,35.77
2023-03-16T16:47:03.693Z,36.62
2023-03-16T16:49:35.216Z,36.20
2023-03-16T16:52:04.284Z,35.27
2023-03-16T16:54:33.080Z,34.77
2023-03-16T16:57:03.181Z,34.87
2023-03-16T16:59:38.324Z,36.88
2023-03-16T17:02:57.846Z,37.69
2023-03-16T17:05:30.241Z,37.30
2023-03-16T17:08:04.206Z,37.72
2023-03-16T17:10:35.068Z,37.00
2023-03-16T17:13:05.466Z,39.15
2023-03-16T17:15:34.964Z,39.48
2023-03-16T17:18:13.311Z,40.21
2023-03-16T17:20:42.852Z,40.92
2023-03-16T17:23:35.073Z,46.01
2023-03-16T17:26:18.928Z,42.91
2023-03-16T17:28:57.692Z,38.91
2023-03-16T17:31:38.402Z,39.36
2023-03-16T17:34:27.646Z,39.45
2023-03-16T17:36:57.232Z,40.13
2023-03-16T17:39:34.692Z,40.64
2023-03-16T17:42:18.592Z,42.97
2023-03-16T17:44:53.143Z,42.82
2023-03-16T17:47:29.279Z,43.82
2023-03-16T17:49:58.728Z,42.64
2023-03-16T17:52:29.905Z,43.89
2023-03-16T17:54:58.592Z,44.20
2023-03-16T17:57:34.466Z,46.56
2023-03-16T18:00:42.446Z,46.67
2023-03-16T18:03:17.440Z,46.61
2023-03-16T18:05:46.756Z,47.56
2023-03-16T18:08:27.313Z,47.08
2023-03-16T18:11:03.642Z,48.27
2023-03-16T18:13:38.406Z,49.89
2023-03-16T18:16:08.512Z,50.71
2023-03-16T18:18:42.920Z,51.30
2023-03-16T18:21:24.815Z,51.21
2023-03-16T18:23:56.345Z,52.08
2023-03-16T18:26:27.701Z,52.30
2023-03-16T18:28:58.085Z,51.78
2023-03-16T18:31:28.962Z,51.77
2023-03-16T18:34:06.057Z,52.30
2023-03-16T18:36:38.695Z,52.12
2023-03-16T18:39:20.657Z,51.12
2023-03-16T18:41:51.130Z,54.37
2023-03-16T18:44:26.035Z,56.27
2023-03-16T18:47:03.039Z,56.34
2023-03-16T18:49:37.604Z,57.39
2023-03-16T18:52:24.833Z,58.96
2023-03-16T18:54:53.786Z,57.88
2023-03-16T18:57:26.829Z,56.68
2023-03-16T18:59:56.574Z,56.40
2023-03-16T19:02:59.310Z,57.27
2023-03-16T19:05:38.908Z,59.63
2023-03-16T19:08:10.305Z,60.42
2023-03-16T19:10:50.430Z,61.11
2023-03-16T19:13:22.770Z,58.40
2023-03-16T19:15:55.599Z,56.18
2023-03-16T19:18:26.355Z,55.94
2023-03-16T19:20:58.673Z,59.08
2023-03-16T19:23:33.682Z,60.12
2023-03-16T19:26:01.697Z,60.82
2023-03-16T19:28:39.162Z,62.81
2023-03-16T19:31:29.642Z,63.51
2023-03-16T19:33:58.871Z,63.59
2023-03-16T19:36:33.654Z,65.71
2023-03-16T19:39:04.142Z,69.49
2023-03-16T19:41:38.203Z,67.47
2023-03-16T19:44:28.301Z,71.27
2023-03-16T19:47:00.226Z,70.14
2023-03-16T19:49:30.827Z,69.92
2023-03-16T19:52:00.423Z,70.59
2023-03-16T19:54:33.540Z,68.75
2023-03-16T19:57:16.162Z,71.84
2023-03-16T19:59:56.153Z,72.99
2023-03-16T20:02:30.391Z,72.11
2023-03-16T20:04:59.989Z,68.99
2023-03-16T20:07:29.796Z,66.98
2023-03-16T20:09:59.792Z,67.98
2023-03-16T20:12:31.151Z,69.09
2023-03-16T20:15:00.954Z,70.36
2023-03-16T20:17:33.054Z,68.69
2023-03-16T20:20:02.786Z,73.15
2023-03-16T20:22:32.425Z,73.80
2023-03-16T20:25:05.358Z,70.64
2023-03-16T20:27:36.668Z,71.21
2023-03-16T20:30:17.626Z,71.10
2023-03-16T20:32:48.140Z,71.62
2023-03-16T20:35:23.462Z,74.80
2023-03-16T20:37:53.332Z,72.82
2023-03-16T20:40:24.073Z,75.76
2023-03-16T20:42:54.167Z,75.47
2023-03-16T20:45:29.352Z,72.89
2023-03-16T20:47:59.194Z,74.82
2023-03-16T20:50:31.159Z,72.29
2023-03-16T20:53:00.891Z,69.84
2023-03-16T20:55:32.011Z,71.69
2023-03-16T20:58:02.887Z,74.05
2023-03-16T21:00:36.610Z,76.26
2023-03-16T21:03:23.376Z,75.59
2023-03-16T21:05:55.864Z,76.36
2023-03-16T21:08:26.418Z,77.08
2023-03-16T21:10:57.275Z,76.48
2023-03-16T21:13:34.359Z,75.41
2023-03-16T21:16:05.143Z,75.87
2023-03-16T21:18:34.816Z,77.08
2023-03-16T21:21:05.047Z,77.86
2023-03-16T21:23:34.700Z,79.29
2023-03-16T21:26:04.582Z,79.26
2023-03-16T21:28:35.884Z,78.14
2023-03-16T21:31:06.844Z,77.17
2023-03-16T21:33:43.279Z,78.52
2023-03-16T21:36:21.021Z,77.95
2023-03-16T21:38:52.959Z,77.67
2023-03-16T21:41:23.427Z,78.12
2023-03-16T21:43:54.630Z,78.92
2023-03-16T21:46:25.673Z,78.82
2023-03-16T21:48:56.637Z,76.40
2023-03-16T21:51:32.900Z,79.37
2023-03-16T21:54:02.473Z,79.06
2023-03-16T21:56:32.721Z,80.05
2023-03-16T21:59:02.431Z,78.99
2023-03-16T22:01:34.935Z,78.43
2023-03-16T22:04:14.488Z,79.12
2023-03-16T22:06:46.150Z,77.42
2023-03-16T22:09:22.645Z,75.20
2023-03-16T22:11:52.446Z,79.25
2023-03-16T22:14:22.075Z,80.93
2023-03-16T22:16:51.850Z,80.51
2023-03-16T22:19:21.564Z,80.39
2023-03-16T22:21:51.707Z,81.48
2023-03-16T22:24:27.990Z,81.59
2023-03-16T22:26:59.564Z,83.02
2023-03-16T22:29:36.738Z,81.98
2023-03-16T22:32:16.721Z,83.49
2023-03-16T22:34:53.616Z,83.48
2023-03-16T22:37:28.028Z,84.78
2023-03-16T22:39:58.739Z,83.44
2023-03-16T22:42:38.290Z,85.05
2023-03-16T22:45:27.967Z,83.57
2023-03-16T22:48:02.468Z,84.50
2023-03-16T22:50:35.993Z,85.32
2023-03-16T22:53:11.607Z,85.37
2023-03-16T22:55:41.544Z,85.69
2023-03-16T22:58:31.072Z,86.71
2023-03-16T23:01:18.417Z,85.49
2023-03-16T23:03:51.901Z,85.80
2023-03-16T23:06:27.345Z,86.16
2023-03-16T23:08:58.394Z,84.65
2023-03-16T23:11:34.566Z,84.66
2023-03-16T23:14:10.164Z,85.61
2023-03-16T23:16:40.340Z,83.25
2023-03-16T23:19:30.873Z,84.03
2023-03-16T23:22:06.778Z,83.68
2023-03-16T23:24:37.082Z,84.85
2023-03-16T23:27:22.917Z,86.58
2023-03-16T23:29:53.265Z,84.51
2023-03-16T23:32:22.812Z,84.46
2023-03-16T23:34:52.492Z,82.65
2023-03-16T23:37:22.072Z,82.63
2023-03-16T23:39:51.593Z,83.21
2023-03-16T23:42:21.237Z,82.18
2023-03-16T23:44:50.002Z,83.43
2023-03-16T23:47:18.711Z,83.43
2023-03-16T23:49:46.675Z,82.82
2023-03-16T23:52:15.546Z,83.09
2023-03-16T23:54:45.087Z,83.04
2023-03-16T23:57:13.842Z,82.77
2023-03-16T23:59:43.644Z,83.47
